Detall de PIREP

Printer-friendly versionPDF version

[2014/03/02 15:15:00]
Flight IATA:CT1004
Pilot Number:012
Company ICAO:CAT
Aircraft Type:C750/F
PAX:4
Departing Airport: LEBL
Destination Airport: LPPR
Alternate Airport:LPPT
Online: VATSIM
Route:LOBAR UN725 TUSBA UT7 ASPOR
Flight Level:F410
No Slew and time accel
No pause
Crash detect
Detect pilot in Cockpit between each 30 and 45 minutes
15:15 Zero fuel Weight: 22936 Lbs, Fuel Weight: 6272 Lbs
15:15 VATSIM:LEBL 021500Z 19008KT 150V220 9999 FEW030 14/08 Q1003 NOSIG
15:15 VATSIM:LPPR 021500Z 28008KT 240V310 2300 -RA BR VCFG OVC002 13/13 Q1011
15:15 VOICE CATALONIAN / MWC 2014 BARCELONA CHARTER
15:15 Parking Brakes off
15:22 Take-off
15:22 Take off Weight: 29119 Lbs
15:22 Wind: 179º @ 007 Knots Heading: 243º
15:22 POS N41º 17´ 14´´ E002º 05´ 20´´
15:22 Gear Up: 153 Knots
15:22 Flaps:3 at 153 Knots
15:23 Flaps:2 at 171 Knots
15:23 Flaps:0 at 171 Knots
15:33 TOC
15:33 Fuel Weight: 5692 Lb
15:37 Wind:314º@059 Knots Heading: 309º Ground Speed: 444 Knots Altitude 40705 ft
15:52 Wind:308º@058 Knots Heading: 288º Ground Speed: 440 Knots Altitude 40698 ft
16:07 Wind:297º@064 Knots Heading: 280º Ground Speed: 432 Knots Altitude 40744 ft
16:21 TOD
16:21 Fuel Weight: 4705 Lb
16:22 Wind:289º@067 Knots Heading: 277º Ground Speed: 434 Knots Altitude 40439 ft
16:22 TOC
16:22 Fuel Weight: 4702 Lb
16:22 TOD
16:22 Fuel Weight: 4690 Lb
16:37 Wind:295º@050 Knots Heading: 237º Ground Speed: 298 Knots Altitude 11614 ft
16:43 Flaps:2 at 235 Knots
16:43 Gear Down: 230 Knots
16:43 Flaps:3 at 220 Knots
16:44 Flaps:4 at 185 Knots
16:44 Flaps:5 at 181 Knots
16:45 TouchDown:Rate -242 ft/min Speed: 104 Knots
16:46 VATSIM:LPPR 021630Z 29008KT 260V320 4500 -DZ BR SCT002 BKN004 OVC010 13/13 Q1012
16:46 Land
16:46 Wind:285º@007 Knots
16:46 Heading: 168º
16:46 Flight Duration: 01:24
16:46 Landing Weight: 27341 Lbs
16:46 POS N41º 14´ 46´´ W008º 40´ 51´´
16:49 Parking brakes on
16:49 Block to Block Duration: 01:34
16:49 Final Fuel: 4380 Lbls
16:49 Spent Fuel: 1891 Lbls
16:49 Flight Length: 551 NM
16:49 TOD Land Length: 131 NM

Exportar CSV

Powered by Drupal - Modified by Danger4k